createdAt,value
2023-05-12T00:00:22.729Z,19.49
2023-05-12T00:01:22.704Z,19.53
2023-05-12T00:02:22.770Z,19.52
2023-05-12T00:03:22.756Z,19.53
2023-05-12T00:04:22.726Z,19.45
2023-05-12T00:05:22.683Z,19.42
2023-05-12T00:06:22.646Z,19.42
2023-05-12T00:07:22.645Z,19.42
2023-05-12T00:08:22.621Z,19.41
2023-05-12T00:09:22.637Z,19.39
2023-05-12T00:10:22.623Z,19.41
2023-05-12T00:11:22.587Z,19.37
2023-05-12T00:12:22.580Z,19.34
2023-05-12T00:13:22.630Z,19.34
2023-05-12T00:14:22.564Z,19.41
2023-05-12T00:15:22.542Z,19.32
2023-05-12T00:16:22.588Z,19.34
2023-05-12T00:17:22.580Z,19.22
2023-05-12T00:18:22.570Z,19.23
2023-05-12T00:19:22.508Z,19.26
2023-05-12T00:20:22.734Z,19.20
2023-05-12T00:21:22.485Z,19.27
2023-05-12T00:22:22.476Z,19.19
2023-05-12T00:23:22.465Z,19.15
2023-05-12T00:24:22.453Z,19.17
2023-05-12T00:25:22.460Z,19.05
2023-05-12T00:26:22.448Z,19.07
2023-05-12T00:27:22.439Z,19.05
2023-05-12T00:28:22.410Z,18.96
2023-05-12T00:29:22.391Z,19.01
2023-05-12T00:30:22.491Z,19.01
2023-05-12T00:31:22.430Z,19.01
2023-05-12T00:32:22.387Z,18.98
2023-05-12T00:33:22.353Z,18.98
2023-05-12T00:34:22.344Z,18.93
2023-05-12T00:35:22.329Z,18.88
2023-05-12T00:36:22.345Z,18.89
2023-05-12T00:37:22.303Z,18.93
2023-05-12T00:38:22.316Z,18.83
2023-05-12T00:39:22.303Z,18.89
2023-05-12T00:40:22.275Z,18.85
2023-05-12T00:41:22.328Z,18.81
2023-05-12T00:42:22.254Z,18.81
2023-05-12T00:43:22.252Z,18.75
2023-05-12T00:44:22.242Z,18.78
2023-05-12T00:45:22.227Z,18.83
2023-05-12T00:46:22.247Z,18.70
2023-05-12T00:47:22.209Z,18.70
2023-05-12T00:48:22.194Z,18.61
2023-05-12T00:49:22.180Z,18.66
2023-05-12T00:50:22.358Z,18.66
2023-05-12T00:51:22.203Z,18.63
2023-05-12T00:52:22.149Z,18.61
2023-05-12T00:53:22.160Z,18.58
2023-05-12T00:54:22.130Z,18.58
2023-05-12T00:55:22.128Z,18.58
2023-05-12T00:56:22.134Z,18.54
2023-05-12T00:57:22.142Z,18.52
2023-05-12T00:58:22.086Z,18.49
2023-05-12T00:59:22.080Z,18.43
2023-05-12T01:00:22.261Z,18.43
2023-05-12T01:01:22.134Z,18.42
2023-05-12T01:02:22.166Z,18.51
2023-05-12T01:03:22.287Z,18.41
2023-05-12T01:04:22.018Z,18.34
2023-05-12T01:05:22.008Z,18.36
2023-05-12T01:06:22.026Z,18.31
2023-05-12T01:07:22.001Z,18.24
2023-05-12T01:08:21.996Z,18.30
2023-05-12T01:09:21.987Z,18.34
2023-05-12T01:10:22.272Z,18.24
2023-05-12T01:11:21.948Z,18.34
2023-05-12T01:12:21.951Z,18.27
2023-05-12T01:13:21.971Z,18.30
2023-05-12T01:14:21.919Z,18.30
2023-05-12T01:15:21.898Z,18.23
2023-05-12T01:16:21.890Z,18.26
2023-05-12T01:17:21.974Z,18.26
2023-05-12T01:18:22.031Z,18.13
2023-05-12T01:19:21.869Z,18.17
2023-05-12T01:20:22.062Z,18.15
2023-05-12T01:21:21.836Z,18.08
2023-05-12T01:22:21.829Z,18.09
2023-05-12T01:23:21.814Z,18.12
2023-05-12T01:24:21.799Z,18.02
2023-05-12T01:25:21.792Z,18.05
2023-05-12T01:26:21.809Z,18.02
2023-05-12T01:27:21.792Z,18.05
2023-05-12T01:28:21.757Z,17.96
2023-05-12T01:29:21.763Z,17.94
2023-05-12T01:30:22.161Z,17.99
2023-05-12T01:31:21.762Z,17.97
2023-05-12T01:32:21.799Z,17.91
2023-05-12T01:33:21.715Z,17.91
2023-05-12T01:34:21.700Z,17.87
2023-05-12T01:35:21.677Z,17.86
2023-05-12T01:36:21.669Z,17.88
2023-05-12T01:37:21.705Z,17.76
2023-05-12T01:38:21.679Z,17.88
2023-05-12T01:39:21.635Z,17.84
2023-05-12T01:40:21.854Z,17.86
2023-05-12T01:41:21.613Z,17.83
2023-05-12T01:42:21.644Z,17.68
2023-05-12T01:43:22.291Z,17.78
2023-05-12T01:44:21.587Z,17.81
2023-05-12T01:45:21.591Z,17.73
2023-05-12T01:46:21.602Z,17.66
2023-05-12T01:47:21.679Z,17.62
2023-05-12T01:48:21.563Z,17.65
2023-05-12T01:49:21.524Z,17.65
2023-05-12T01:50:21.743Z,17.71
2023-05-12T01:51:21.522Z,17.63
2023-05-12T01:52:21.519Z,17.69
2023-05-12T01:53:21.474Z,17.62
2023-05-12T01:54:21.465Z,17.50
2023-05-12T01:55:21.464Z,17.46
2023-05-12T01:56:21.469Z,17.49
2023-05-12T01:57:21.442Z,17.46
2023-05-12T01:58:21.427Z,17.53
2023-05-12T01:59:21.478Z,17.49
2023-05-12T02:00:21.888Z,17.49
2023-05-12T02:01:21.490Z,17.47
2023-05-12T02:02:21.380Z,17.45
2023-05-12T02:03:21.494Z,17.46
2023-05-12T02:04:21.359Z,17.46
2023-05-12T02:05:21.353Z,17.41
2023-05-12T02:06:21.368Z,17.38
2023-05-12T02:07:21.323Z,17.35
2023-05-12T02:08:21.320Z,17.46
2023-05-12T02:09:21.317Z,17.43
2023-05-12T02:10:21.505Z,17.38
2023-05-12T02:11:21.306Z,17.37
2023-05-12T02:12:21.277Z,17.38
2023-05-12T02:13:21.273Z,17.28
2023-05-12T02:14:21.258Z,17.37
2023-05-12T02:15:21.246Z,17.34
2023-05-12T02:16:21.336Z,17.28
2023-05-12T02:17:21.262Z,17.31
2023-05-12T02:18:21.247Z,17.25
2023-05-12T02:19:21.209Z,17.27
2023-05-12T02:20:21.451Z,17.27
2023-05-12T02:21:21.202Z,17.22
2023-05-12T02:22:21.175Z,17.22
2023-05-12T02:23:21.166Z,17.16
2023-05-12T02:24:21.147Z,17.14
2023-05-12T02:25:21.136Z,17.16
2023-05-12T02:26:21.166Z,17.13
2023-05-12T02:27:21.137Z,17.19
2023-05-12T02:28:21.109Z,17.14
2023-05-12T02:29:21.116Z,17.12
2023-05-12T02:30:21.369Z,17.07
2023-05-12T02:31:21.106Z,17.09
2023-05-12T02:32:21.105Z,17.16
2023-05-12T02:33:21.199Z,17.07
2023-05-12T02:34:21.041Z,17.02
2023-05-12T02:35:21.027Z,16.98
2023-05-12T02:36:21.019Z,16.95
2023-05-12T02:37:21.028Z,16.91
2023-05-12T02:38:20.997Z,16.94
2023-05-12T02:39:20.991Z,16.90
2023-05-12T02:40:21.169Z,16.88
2023-05-12T02:41:20.988Z,16.84
2023-05-12T02:42:20.953Z,16.88
2023-05-12T02:43:20.947Z,16.83
2023-05-12T02:44:20.933Z,16.88
2023-05-12T02:45:20.939Z,16.79
2023-05-12T02:46:20.940Z,16.73
2023-05-12T02:47:20.930Z,16.76
2023-05-12T02:48:20.901Z,16.80
2023-05-12T02:49:20.916Z,16.80
2023-05-12T02:50:21.029Z,16.69
2023-05-12T02:51:20.858Z,16.77
2023-05-12T02:52:20.850Z,16.72
2023-05-12T02:53:20.861Z,16.64
2023-05-12T02:54:20.840Z,16.64
2023-05-12T02:55:20.814Z,16.72
2023-05-12T02:56:20.831Z,16.62
2023-05-12T02:57:20.798Z,16.62
2023-05-12T02:58:20.810Z,16.64
2023-05-12T02:59:20.770Z,16.62
2023-05-12T03:00:20.927Z,16.59
2023-05-12T03:01:20.763Z,16.69
2023-05-12T03:02:20.805Z,16.55
2023-05-12T03:03:20.829Z,16.58
2023-05-12T03:04:20.724Z,16.65
2023-05-12T03:05:20.778Z,16.47
2023-05-12T03:06:20.717Z,16.46
2023-05-12T03:07:20.680Z,16.51
2023-05-12T03:08:20.699Z,16.46
2023-05-12T03:09:20.675Z,16.46
2023-05-12T03:10:20.837Z,16.44
2023-05-12T03:11:20.647Z,16.46
2023-05-12T03:12:20.653Z,16.42
2023-05-12T03:13:20.648Z,16.43
2023-05-12T03:14:20.631Z,16.40
2023-05-12T03:15:20.603Z,16.32
2023-05-12T03:16:20.674Z,16.40
2023-05-12T03:17:20.634Z,16.37
2023-05-12T03:18:20.634Z,16.24
2023-05-12T03:19:20.562Z,16.29
2023-05-12T03:20:20.789Z,16.34
2023-05-12T03:21:20.554Z,16.26
2023-05-12T03:22:20.548Z,16.26
2023-05-12T03:23:20.508Z,16.29
2023-05-12T03:24:20.506Z,16.29
2023-05-12T03:25:20.489Z,16.17
2023-05-12T03:26:20.498Z,16.16
2023-05-12T03:27:20.491Z,16.14
2023-05-12T03:28:20.460Z,16.17
2023-05-12T03:29:20.442Z,16.14
2023-05-12T03:30:20.679Z,16.17
2023-05-12T03:31:20.484Z,16.18
2023-05-12T03:32:20.481Z,16.03
2023-05-12T03:33:20.407Z,16.14
2023-05-12T03:34:20.403Z,16.00
2023-05-12T03:35:20.390Z,16.02
2023-05-12T03:36:20.366Z,16.08
2023-05-12T03:37:20.440Z,16.03
2023-05-12T03:38:20.361Z,16.06
2023-05-12T03:39:20.339Z,15.96
2023-05-12T03:40:20.667Z,16.00
2023-05-12T03:41:20.314Z,15.98
2023-05-12T03:42:20.304Z,16.00
2023-05-12T03:43:20.313Z,15.93
2023-05-12T03:44:20.281Z,15.84
2023-05-12T03:45:20.281Z,15.88
2023-05-12T03:46:20.293Z,15.85
2023-05-12T03:47:20.367Z,15.91
2023-05-12T03:48:20.310Z,15.90
2023-05-12T03:49:20.248Z,15.84
2023-05-12T03:50:20.403Z,15.88
2023-05-12T03:51:20.222Z,15.80
2023-05-12T03:52:20.198Z,15.77
2023-05-12T03:53:20.228Z,15.78
2023-05-12T03:54:20.177Z,15.77
2023-05-12T03:55:20.165Z,15.78
2023-05-12T03:56:20.148Z,15.77
2023-05-12T03:57:20.136Z,15.77
2023-05-12T03:58:20.149Z,15.77
2023-05-12T03:59:20.123Z,15.68
2023-05-12T04:00:20.284Z,15.69
2023-05-12T04:01:20.098Z,15.72
2023-05-12T04:02:20.134Z,15.66
2023-05-12T04:03:20.217Z,15.66
2023-05-12T04:04:20.068Z,15.66
2023-05-12T04:05:20.053Z,15.63
2023-05-12T04:06:20.045Z,15.60
2023-05-12T04:07:20.035Z,15.63
2023-05-12T04:08:20.054Z,15.56
2023-05-12T04:09:20.147Z,15.63
2023-05-12T04:10:20.323Z,15.59
2023-05-12T04:11:19.987Z,15.63
2023-05-12T04:12:19.978Z,15.56
2023-05-12T04:13:19.966Z,15.56
2023-05-12T04:14:26.531Z,15.56
2023-05-12T04:15:20.941Z,15.56
2023-05-12T04:16:19.943Z,15.56
2023-05-12T04:17:19.984Z,15.52
2023-05-12T04:18:19.944Z,15.58
2023-05-12T04:19:19.925Z,15.56
2023-05-12T04:20:20.085Z,15.54
2023-05-12T04:21:19.883Z,15.47
2023-05-12T04:22:19.887Z,15.41
2023-05-12T04:23:19.887Z,15.48
2023-05-12T04:24:19.850Z,15.50
2023-05-12T04:25:19.863Z,15.54
2023-05-12T04:26:19.843Z,15.44
2023-05-12T04:27:19.821Z,15.45
2023-05-12T04:28:19.805Z,15.44
2023-05-12T04:29:19.799Z,15.41
2023-05-12T04:30:20.096Z,15.47
2023-05-12T04:31:19.895Z,15.51
2023-05-12T04:32:19.856Z,15.47
2023-05-12T04:33:19.752Z,15.45
2023-05-12T04:34:19.771Z,15.50
2023-05-12T04:35:19.736Z,15.48
2023-05-12T04:36:19.721Z,15.48
2023-05-12T04:37:19.711Z,15.47
2023-05-12T04:38:19.702Z,15.47
2023-05-12T04:39:19.712Z,15.52
2023-05-12T04:40:19.873Z,15.48
2023-05-12T04:41:19.712Z,15.56
2023-05-12T04:42:19.656Z,15.45
2023-05-12T04:44:19.651Z,15.48
2023-05-12T04:45:20.076Z,15.52
2023-05-12T04:46:19.634Z,15.41
2023-05-12T04:47:19.637Z,15.45
2023-05-12T04:48:19.588Z,15.51
2023-05-12T04:49:19.617Z,15.52
2023-05-12T04:50:19.571Z,15.52
2023-05-12T04:51:19.564Z,15.58
2023-05-12T04:52:19.575Z,15.51
2023-05-12T04:53:19.541Z,15.56
2023-05-12T04:54:19.557Z,15.52
2023-05-12T04:55:19.766Z,15.54
2023-05-12T04:56:19.503Z,15.56
2023-05-12T04:57:19.531Z,15.54
2023-05-12T04:58:19.484Z,15.51
2023-05-12T04:59:19.481Z,15.58
2023-05-12T05:00:19.488Z,15.60
2023-05-12T05:01:19.494Z,15.59
2023-05-12T05:02:19.483Z,15.59
2023-05-12T05:03:19.514Z,15.60
2023-05-12T05:04:19.425Z,15.59
2023-05-12T05:05:19.831Z,15.56
2023-05-12T05:06:19.397Z,15.62
2023-05-12T05:07:19.382Z,15.65
2023-05-12T05:08:19.396Z,15.66
2023-05-12T05:09:19.383Z,15.69
2023-05-12T05:10:19.349Z,15.69
2023-05-12T05:11:19.343Z,15.66
2023-05-12T05:12:19.324Z,15.62
2023-05-12T05:13:19.375Z,15.70
2023-05-12T05:14:19.323Z,15.63
2023-05-12T05:15:19.535Z,15.76
2023-05-12T05:16:19.284Z,15.72
2023-05-12T05:17:19.297Z,15.73
2023-05-12T05:18:20.516Z,15.80
2023-05-12T05:19:27.963Z,15.73
2023-05-12T05:20:19.799Z,15.76
2023-05-12T05:21:19.235Z,15.80
2023-05-12T05:22:19.217Z,15.73
2023-05-12T05:23:19.213Z,15.81
2023-05-12T05:24:19.216Z,15.73
2023-05-12T05:25:19.371Z,15.77
2023-05-12T05:26:19.178Z,15.85
2023-05-12T05:27:19.167Z,15.77
2023-05-12T05:28:19.165Z,15.84
2023-05-12T05:29:19.208Z,15.85
2023-05-12T05:30:19.147Z,15.83
2023-05-12T05:31:19.141Z,15.88
2023-05-12T05:32:19.112Z,15.85
2023-05-12T05:33:19.111Z,15.84
2023-05-12T05:34:19.186Z,15.95
2023-05-12T05:35:19.223Z,15.98
2023-05-12T05:36:19.072Z,15.99
2023-05-12T05:37:19.078Z,15.96
2023-05-12T05:38:19.042Z,16.02
2023-05-12T05:39:19.056Z,16.02
2023-05-12T05:40:19.019Z,16.10
2023-05-12T05:41:19.022Z,16.05
2023-05-12T05:42:19.005Z,16.09
2023-05-12T05:43:19.044Z,16.17
2023-05-12T05:44:19.015Z,16.21
2023-05-12T05:45:19.086Z,16.17
2023-05-12T05:46:18.981Z,16.18
2023-05-12T05:47:18.957Z,16.25
2023-05-12T05:48:18.963Z,16.24
2023-05-12T05:49:18.933Z,16.33
2023-05-12T05:50:18.916Z,16.21
2023-05-12T05:51:18.928Z,16.32
2023-05-12T05:52:18.908Z,16.36
2023-05-12T05:53:19.493Z,16.39
2023-05-12T05:54:18.879Z,16.42
2023-05-12T05:55:19.314Z,16.46
2023-05-12T05:56:18.863Z,16.49
2023-05-12T05:57:18.842Z,16.54
2023-05-12T05:58:18.851Z,16.54
2023-05-12T05:59:18.807Z,16.51
2023-05-12T06:00:18.828Z,16.51
2023-05-12T06:01:18.937Z,16.54
2023-05-12T06:02:18.807Z,16.62
2023-05-12T06:03:18.850Z,16.62
2023-05-12T06:04:18.882Z,16.65
2023-05-12T06:05:18.891Z,16.65
2023-05-12T06:06:18.744Z,16.69
2023-05-12T06:07:20.025Z,16.69
2023-05-12T06:08:18.714Z,16.72
2023-05-12T06:09:18.736Z,16.80
2023-05-12T06:10:19.043Z,16.73
2023-05-12T06:11:18.687Z,16.73
2023-05-12T06:12:18.676Z,16.88
2023-05-12T06:13:18.661Z,16.88
2023-05-12T06:14:18.677Z,16.84
2023-05-12T06:15:19.042Z,16.90
2023-05-12T06:16:18.703Z,16.91
2023-05-12T06:17:18.672Z,17.01
2023-05-12T06:18:18.622Z,16.94
2023-05-12T06:19:18.618Z,17.06
2023-05-12T06:20:18.619Z,17.07
2023-05-12T06:21:18.577Z,17.13
2023-05-12T06:22:18.562Z,17.12
2023-05-12T06:23:18.564Z,17.07
2023-05-12T06:24:18.547Z,17.10
2023-05-12T06:25:18.771Z,17.12
2023-05-12T06:26:18.553Z,17.19
2023-05-12T06:27:18.511Z,17.25
2023-05-12T06:28:18.504Z,17.27
2023-05-12T06:29:18.500Z,17.30
2023-05-12T06:30:18.478Z,17.30
2023-05-12T06:31:18.554Z,17.34
2023-05-12T06:32:18.510Z,17.47
2023-05-12T06:33:18.491Z,17.38
2023-05-12T06:34:18.446Z,17.45
2023-05-12T06:35:18.645Z,17.46
2023-05-12T06:36:18.433Z,17.50
2023-05-12T06:37:18.428Z,17.49
2023-05-12T06:38:18.398Z,17.53
2023-05-12T06:39:18.394Z,17.56
2023-05-12T06:40:18.415Z,17.66
2023-05-12T06:41:18.371Z,17.62
2023-05-12T06:42:18.370Z,17.59
2023-05-12T06:43:18.350Z,17.68
2023-05-12T06:44:18.332Z,17.75
2023-05-12T06:45:18.557Z,17.81
2023-05-12T06:46:18.348Z,17.75
2023-05-12T06:47:18.306Z,17.81
2023-05-12T06:48:18.286Z,17.79
2023-05-12T06:49:18.301Z,17.90
2023-05-12T06:50:18.284Z,17.88
2023-05-12T06:51:18.272Z,18.03
2023-05-12T06:52:18.252Z,18.02
2023-05-12T06:53:18.240Z,18.01
2023-05-12T06:54:18.224Z,18.02
2023-05-12T06:55:18.404Z,18.12
2023-05-12T06:56:18.198Z,18.18
2023-05-12T06:57:18.194Z,18.13
2023-05-12T06:58:18.183Z,18.13
2023-05-12T06:59:20.203Z,18.21
2023-05-12T07:00:18.160Z,18.18
2023-05-12T07:01:18.212Z,18.24
2023-05-12T07:02:18.135Z,18.33
2023-05-12T07:03:18.207Z,18.31
2023-05-12T07:04:18.110Z,18.28
2023-05-12T07:05:18.309Z,18.30
2023-05-12T07:06:18.156Z,18.34
2023-05-12T07:07:18.096Z,18.42
2023-05-12T07:08:18.065Z,18.39
2023-05-12T07:09:18.088Z,18.51
2023-05-12T07:10:18.041Z,18.41
2023-05-12T07:11:18.039Z,18.56
2023-05-12T07:12:18.046Z,18.56
2023-05-12T07:13:18.013Z,18.63
2023-05-12T07:14:18.036Z,18.66
2023-05-12T07:15:18.049Z,18.68
2023-05-12T07:16:18.028Z,18.70
2023-05-12T07:17:17.995Z,18.78
2023-05-12T07:18:17.958Z,18.79
2023-05-12T07:19:17.974Z,18.78
2023-05-12T07:20:17.944Z,18.79
2023-05-12T07:21:17.953Z,18.88
2023-05-12T07:22:17.920Z,18.86
2023-05-12T07:23:17.905Z,18.94
2023-05-12T07:24:17.930Z,19.01
2023-05-12T07:25:18.086Z,19.00
2023-05-12T07:26:17.874Z,19.05
2023-05-12T07:27:17.863Z,19.07
2023-05-12T07:28:17.846Z,19.08
2023-05-12T07:29:17.839Z,19.19
2023-05-12T07:30:17.845Z,19.19
2023-05-12T07:31:17.869Z,19.23
2023-05-12T07:32:17.803Z,19.23
2023-05-12T07:33:17.805Z,19.37
2023-05-12T07:34:17.781Z,19.39
2023-05-12T07:35:17.849Z,19.37
2023-05-12T07:36:18.289Z,19.49
2023-05-12T07:37:17.979Z,19.44
2023-05-12T07:38:17.760Z,19.49
2023-05-12T07:39:17.734Z,19.57
2023-05-12T07:40:17.731Z,19.59
2023-05-12T07:41:17.720Z,19.68
2023-05-12T07:42:17.706Z,19.67
2023-05-12T07:43:17.742Z,19.82
2023-05-12T07:44:17.689Z,19.77
2023-05-12T07:45:17.761Z,19.74
2023-05-12T07:46:17.658Z,19.87
2023-05-12T07:47:17.715Z,19.93
2023-05-12T07:48:17.661Z,19.89
2023-05-12T07:49:17.625Z,19.97
2023-05-12T07:50:17.631Z,20.05
2023-05-12T07:51:17.608Z,20.05
2023-05-12T07:52:17.596Z,20.08
2023-05-12T07:53:17.632Z,20.12
2023-05-12T07:54:17.575Z,20.25
2023-05-12T07:55:17.632Z,20.30
2023-05-12T07:56:17.553Z,20.32
2023-05-12T07:57:17.561Z,20.37
2023-05-12T07:58:17.528Z,20.37
2023-05-12T07:59:17.528Z,20.39
2023-05-12T08:00:17.523Z,20.44
2023-05-12T08:01:17.500Z,20.49
2023-05-12T08:02:17.567Z,20.55
2023-05-12T08:03:17.625Z,20.60
2023-05-12T08:04:17.529Z,20.61
2023-05-12T08:05:17.525Z,20.63
2023-05-12T08:06:17.443Z,20.73
2023-05-12T08:07:17.451Z,20.67
2023-05-12T08:08:17.426Z,20.79
2023-05-12T08:09:17.440Z,20.85
2023-05-12T08:10:17.402Z,20.90
2023-05-12T08:11:17.393Z,20.93
2023-05-12T08:12:17.400Z,20.97
2023-05-12T08:13:17.371Z,21.04
2023-05-12T08:14:17.359Z,21.07
2023-05-12T08:15:17.355Z,21.20
2023-05-12T08:16:17.369Z,21.14
2023-05-12T08:17:17.439Z,21.23
2023-05-12T08:18:17.347Z,21.37
2023-05-12T08:19:17.337Z,21.35
2023-05-12T08:20:17.295Z,21.35
2023-05-12T08:21:17.301Z,21.44
2023-05-12T08:22:17.297Z,21.48
2023-05-12T08:23:17.252Z,21.58
2023-05-12T08:24:17.250Z,21.59
2023-05-12T08:25:17.384Z,21.62
2023-05-12T08:26:17.232Z,21.73
2023-05-12T08:27:17.239Z,21.73
2023-05-12T08:28:17.208Z,21.82
2023-05-12T08:29:17.220Z,21.85
2023-05-12T08:30:17.184Z,21.85
2023-05-12T08:31:17.229Z,21.96
2023-05-12T08:32:17.171Z,21.98
2023-05-12T08:33:17.178Z,22.06
2023-05-12T08:34:17.141Z,22.15
2023-05-12T08:35:17.134Z,22.03
2023-05-12T08:36:17.123Z,22.13
2023-05-12T08:37:17.107Z,22.23
2023-05-12T08:38:17.096Z,22.27
2023-05-12T08:39:17.111Z,22.34
2023-05-12T08:40:17.074Z,22.36
2023-05-12T08:41:17.118Z,22.38
2023-05-12T08:42:17.051Z,22.51
2023-05-12T08:43:17.044Z,22.55
2023-05-12T08:44:17.054Z,22.53
2023-05-12T08:45:17.088Z,22.58
2023-05-12T08:46:17.119Z,22.64
2023-05-12T08:47:17.000Z,22.67
2023-05-12T08:48:17.030Z,22.67
2023-05-12T08:49:16.998Z,22.88
2023-05-12T08:50:16.972Z,22.80
2023-05-12T08:51:16.981Z,22.86
2023-05-12T08:52:16.949Z,22.88
2023-05-12T08:53:16.935Z,22.98
2023-05-12T08:54:16.925Z,23.04
2023-05-12T08:55:16.912Z,23.15
2023-05-12T08:57:16.971Z,23.18
2023-05-12T08:58:16.878Z,23.36
2023-05-12T08:59:16.863Z,23.21
2023-05-12T09:00:16.858Z,23.33
2023-05-12T09:01:16.951Z,23.45
2023-05-12T09:02:16.854Z,23.46
2023-05-12T09:03:16.862Z,23.45
2023-05-12T09:04:16.837Z,23.52
2023-05-12T09:05:16.860Z,23.56
2023-05-12T09:06:16.833Z,23.59
2023-05-12T09:07:16.785Z,23.56
2023-05-12T09:08:16.771Z,23.64
2023-05-12T09:09:16.754Z,23.74
2023-05-12T09:10:32.984Z,23.70
2023-05-12T09:11:17.755Z,23.73
2023-05-12T09:12:16.927Z,23.76
2023-05-12T09:13:16.752Z,23.92
2023-05-12T09:14:16.718Z,23.94
2023-05-12T09:15:16.706Z,24.01
2023-05-12T09:16:16.765Z,24.01
2023-05-12T09:17:16.694Z,24.06
2023-05-12T09:18:16.669Z,24.10
2023-05-12T09:19:16.773Z,24.11
2023-05-12T09:20:30.420Z,24.26
2023-05-12T09:21:17.652Z,24.25
2023-05-12T09:22:16.630Z,24.34
2023-05-12T09:23:16.612Z,24.38
2023-05-12T09:24:16.602Z,24.34
2023-05-12T09:25:16.601Z,24.48
2023-05-12T09:26:16.649Z,24.63
2023-05-12T09:27:16.569Z,24.58
2023-05-12T09:28:16.597Z,24.66
2023-05-12T09:29:27.689Z,24.70
2023-05-12T09:30:17.539Z,24.79
2023-05-12T09:31:16.591Z,24.89
2023-05-12T09:32:16.536Z,24.90
2023-05-12T09:33:16.536Z,24.84
2023-05-12T09:34:16.496Z,25.04
2023-05-12T09:35:16.512Z,25.06
2023-05-12T09:36:16.486Z,25.12
2023-05-12T09:37:16.493Z,25.19
2023-05-12T09:38:16.484Z,25.19
2023-05-12T09:39:16.440Z,25.26
2023-05-12T09:40:16.434Z,25.33
2023-05-12T09:41:16.428Z,25.43
2023-05-12T09:42:16.440Z,25.45
2023-05-12T09:43:16.406Z,25.55
2023-05-12T09:44:16.412Z,25.63
2023-05-12T09:45:16.401Z,25.63
2023-05-12T09:46:16.424Z,25.67
2023-05-12T09:47:16.381Z,25.70
2023-05-12T09:48:16.401Z,25.83
2023-05-12T09:49:16.340Z,25.81
2023-05-12T09:50:16.330Z,25.96
2023-05-12T09:51:16.317Z,25.89
2023-05-12T09:52:16.352Z,26.10
2023-05-12T09:53:16.297Z,26.10
2023-05-12T09:54:16.321Z,26.26
2023-05-12T09:55:16.284Z,26.39
2023-05-12T09:56:16.272Z,26.56
2023-05-12T09:57:16.274Z,26.57
2023-05-12T09:58:16.304Z,26.70
2023-05-12T09:59:16.232Z,26.82
2023-05-12T10:00:31.207Z,26.83
2023-05-12T10:01:23.109Z,27.00
2023-05-12T10:02:17.319Z,27.10
2023-05-12T10:03:16.252Z,27.38
2023-05-12T10:04:16.277Z,27.41
2023-05-12T10:05:16.166Z,27.50
2023-05-12T10:06:16.167Z,27.58
2023-05-12T10:07:16.168Z,27.72
2023-05-12T10:08:16.180Z,27.75
2023-05-12T10:09:16.150Z,27.85
2023-05-12T10:10:16.134Z,27.88
2023-05-12T10:11:16.103Z,28.01
2023-05-12T10:12:16.158Z,27.98
2023-05-12T10:13:16.079Z,28.19
2023-05-12T10:14:16.084Z,28.25
2023-05-12T10:15:16.066Z,28.22
2023-05-12T10:16:16.069Z,28.28
2023-05-12T10:17:16.115Z,28.27
2023-05-12T10:18:16.098Z,28.38
2023-05-12T10:19:16.018Z,28.40
2023-05-12T10:20:16.009Z,28.47
2023-05-12T10:21:16.031Z,28.66
2023-05-12T10:22:16.014Z,28.62
2023-05-12T10:23:15.984Z,28.71
2023-05-12T10:24:15.989Z,28.66
2023-05-12T10:25:15.959Z,28.81
2023-05-12T10:26:15.956Z,28.89
2023-05-12T10:27:15.971Z,28.80
2023-05-12T10:28:15.937Z,28.91
2023-05-12T10:29:15.921Z,28.87
2023-05-12T10:30:15.919Z,28.86
2023-05-12T10:31:15.981Z,28.93
2023-05-12T10:32:15.896Z,29.00
2023-05-12T10:33:15.966Z,29.00
2023-05-12T10:34:15.885Z,28.91
2023-05-12T10:35:15.848Z,28.89
2023-05-12T10:36:15.867Z,29.04
2023-05-12T10:37:15.853Z,29.02
2023-05-12T10:38:15.833Z,29.04
2023-05-12T10:39:15.809Z,29.12
2023-05-12T10:40:15.944Z,29.13
2023-05-12T10:41:15.794Z,29.25
2023-05-12T10:42:15.822Z,29.17
2023-05-12T10:43:15.795Z,29.21
2023-05-12T10:44:15.771Z,29.25
2023-05-12T10:45:15.758Z,29.21
2023-05-12T10:46:15.799Z,29.22
2023-05-12T10:47:15.763Z,29.31
2023-05-12T10:48:15.724Z,29.29
2023-05-12T10:49:15.797Z,29.41
2023-05-12T10:50:15.722Z,29.36
2023-05-12T10:51:15.697Z,29.34
2023-05-12T10:52:15.700Z,29.40
2023-05-12T10:53:15.664Z,29.36
2023-05-12T10:54:15.662Z,29.46
2023-05-12T10:55:15.753Z,29.40
2023-05-12T10:56:15.933Z,29.41
2023-05-12T10:57:18.428Z,29.39
2023-05-12T10:58:16.045Z,29.47
2023-05-12T10:59:15.914Z,29.49
2023-05-12T11:00:15.948Z,29.50
2023-05-12T11:01:15.825Z,29.58
2023-05-12T11:02:15.856Z,29.55
2023-05-12T11:03:16.676Z,29.54
2023-05-12T11:04:16.122Z,29.54
2023-05-12T11:05:15.789Z,29.56
2023-05-12T11:06:15.801Z,29.63
2023-05-12T11:07:16.553Z,29.62
2023-05-12T11:08:15.972Z,29.55
2023-05-12T11:09:15.815Z,29.63
2023-05-12T11:10:15.605Z,29.70
2023-05-12T11:11:15.995Z,29.66
2023-05-12T11:12:15.467Z,29.63
2023-05-12T11:13:15.485Z,29.70
2023-05-12T11:14:15.451Z,29.68
2023-05-12T11:15:17.806Z,29.78
2023-05-12T11:16:15.465Z,29.78
2023-05-12T11:17:15.408Z,29.83
2023-05-12T11:18:15.431Z,29.92
2023-05-12T11:19:15.456Z,29.89
2023-05-12T11:20:15.376Z,29.92
2023-05-12T11:21:15.396Z,29.92
2023-05-12T11:22:15.368Z,29.89
2023-05-12T11:23:15.349Z,29.91
2023-05-12T11:24:15.368Z,29.95
2023-05-12T11:25:15.363Z,29.98
2023-05-12T11:26:15.320Z,29.95
2023-05-12T11:27:15.338Z,30.02
2023-05-12T11:28:15.307Z,30.05
2023-05-12T11:29:15.287Z,30.10
2023-05-12T11:30:15.281Z,30.14
2023-05-12T11:31:15.362Z,30.15
2023-05-12T11:32:15.288Z,30.10
2023-05-12T11:33:15.262Z,30.17
2023-05-12T11:34:15.251Z,30.18
2023-05-12T11:35:15.259Z,30.21
2023-05-12T11:36:15.218Z,30.24
2023-05-12T11:37:15.270Z,30.22
2023-05-12T11:38:15.195Z,30.22
2023-05-12T11:39:15.207Z,30.32
2023-05-12T11:40:15.176Z,30.30
2023-05-12T11:41:15.165Z,30.35
2023-05-12T11:42:17.009Z,30.46
2023-05-12T11:43:15.170Z,30.43
2023-05-12T11:44:15.135Z,30.43
2023-05-12T11:45:15.146Z,30.48
2023-05-12T11:46:15.140Z,30.60
2023-05-12T11:47:15.118Z,30.59
2023-05-12T11:48:15.220Z,30.67
2023-05-12T11:49:15.090Z,30.59
2023-05-12T11:50:15.120Z,30.68
2023-05-12T11:51:15.058Z,30.80
2023-05-12T11:52:15.057Z,30.85
2023-05-12T11:53:15.328Z,30.97
2023-05-12T11:54:15.026Z,30.99
2023-05-12T11:55:15.017Z,30.95
2023-05-12T11:56:15.007Z,31.01
2023-05-12T11:57:14.999Z,31.07
2023-05-12T11:58:15.014Z,31.11
2023-05-12T11:59:14.971Z,31.24
2023-05-12T12:00:14.973Z,31.20
2023-05-12T12:01:14.956Z,31.20
2023-05-12T12:02:14.971Z,31.34
2023-05-12T12:03:15.449Z,31.38
2023-05-12T12:04:14.948Z,31.41
2023-05-12T12:05:14.942Z,31.52
2023-05-12T12:06:14.910Z,31.45
2023-05-12T12:07:14.906Z,31.56
2023-05-12T12:08:14.893Z,31.60
2023-05-12T12:09:14.925Z,31.52
2023-05-12T12:10:14.891Z,31.61
2023-05-12T12:11:14.853Z,31.59
2023-05-12T12:12:14.845Z,31.56
2023-05-12T12:13:14.850Z,31.63
2023-05-12T12:14:14.826Z,31.68
2023-05-12T12:15:14.855Z,31.78
2023-05-12T12:16:15.166Z,31.71
2023-05-12T12:17:14.823Z,31.68
2023-05-12T12:18:14.814Z,31.76
2023-05-12T12:19:14.856Z,31.82
2023-05-12T12:20:14.772Z,31.81
2023-05-12T12:21:14.782Z,31.81
2023-05-12T12:22:14.748Z,31.91
2023-05-12T12:23:14.740Z,31.97
2023-05-12T12:24:14.726Z,31.94
2023-05-12T12:25:14.733Z,31.94
2023-05-12T12:26:14.747Z,32.02
2023-05-12T12:27:14.693Z,32.02
2023-05-12T12:28:14.702Z,32.06
2023-05-12T12:29:14.680Z,32.09
2023-05-12T12:30:14.674Z,32.08
2023-05-12T12:31:14.741Z,32.11
2023-05-12T12:32:14.643Z,32.21
2023-05-12T12:33:14.723Z,32.11
2023-05-12T12:34:14.615Z,32.16
2023-05-12T12:35:14.668Z,32.23
2023-05-12T12:36:14.631Z,32.26
2023-05-12T12:37:14.615Z,32.23
2023-05-12T12:38:14.616Z,32.28
2023-05-12T12:39:14.641Z,32.27
2023-05-12T12:40:14.607Z,32.39
2023-05-12T12:41:14.729Z,32.28
2023-05-12T12:42:14.537Z,32.33
2023-05-12T12:43:14.528Z,32.38
2023-05-12T12:44:14.549Z,32.42
2023-05-12T12:45:14.514Z,32.50
2023-05-12T12:46:14.499Z,32.48
2023-05-12T12:47:14.609Z,32.51
2023-05-12T12:48:14.524Z,32.45
2023-05-12T12:49:14.493Z,32.50
2023-05-12T12:50:14.477Z,32.43
2023-05-12T12:51:14.449Z,32.48
2023-05-12T12:52:14.440Z,32.54
2023-05-12T12:53:14.431Z,32.54
2023-05-12T12:54:14.706Z,32.57